sensor_id;sensor_type;location;lat;lon;timestamp;P1;durP1;ratioP1;P2;durP2;ratioP2
20207;SDS011;10263;48.716;8.760;2023-02-28T00:01:25;1.80;;;1.13;;
20207;SDS011;10263;48.716;8.760;2023-02-28T00:03:52;3.80;;;1.97;;
20207;SDS011;10263;48.716;8.760;2023-02-28T00:06:19;1.60;;;1.50;;
20207;SDS011;10263;48.716;8.760;2023-02-28T00:08:47;2.83;;;1.60;;
20207;SDS011;10263;48.716;8.760;2023-02-28T00:11:14;2.50;;;1.83;;
20207;SDS011;10263;48.716;8.760;2023-02-28T00:13:42;1.57;;;1.47;;
20207;SDS011;10263;48.716;8.760;2023-02-28T00:16:12;2.47;;;1.60;;
20207;SDS011;10263;48.716;8.760;2023-02-28T00:18:42;1.90;;;1.63;;
20207;SDS011;10263;48.716;8.760;2023-02-28T00:21:09;1.90;;;1.40;;
20207;SDS011;10263;48.716;8.760;2023-02-28T00:23:36;1.77;;;1.53;;
20207;SDS011;10263;48.716;8.760;2023-02-28T00:26:03;2.73;;;1.57;;
20207;SDS011;10263;48.716;8.760;2023-02-28T00:28:30;2.00;;;1.37;;
20207;SDS011;10263;48.716;8.760;2023-02-28T00:30:58;1.53;;;1.13;;
20207;SDS011;10263;48.716;8.760;2023-02-28T00:33:25;2.10;;;1.53;;
20207;SDS011;10263;48.716;8.760;2023-02-28T00:36:02;1.80;;;1.47;;
20207;SDS011;10263;48.716;8.760;2023-02-28T00:38:30;1.90;;;1.70;;
20207;SDS011;10263;48.716;8.760;2023-02-28T00:40:57;2.80;;;1.53;;
20207;SDS011;10263;48.716;8.760;2023-02-28T00:43:29;2.80;;;1.30;;
20207;SDS011;10263;48.716;8.760;2023-02-28T00:45:56;3.20;;;1.97;;
20207;SDS011;10263;48.716;8.760;2023-02-28T00:48:23;2.50;;;1.80;;
20207;SDS011;10263;48.716;8.760;2023-02-28T00:50:50;2.40;;;2.00;;
20207;SDS011;10263;48.716;8.760;2023-02-28T00:53:18;1.97;;;1.77;;
20207;SDS011;10263;48.716;8.760;2023-02-28T00:55:45;1.60;;;1.50;;
20207;SDS011;10263;48.716;8.760;2023-02-28T00:58:12;1.50;;;1.37;;
20207;SDS011;10263;48.716;8.760;2023-02-28T01:00:38;2.87;;;1.80;;
20207;SDS011;10263;48.716;8.760;2023-02-28T01:03:05;1.97;;;1.70;;
20207;SDS011;10263;48.716;8.760;2023-02-28T01:05:32;2.67;;;1.40;;
20207;SDS011;10263;48.716;8.760;2023-02-28T01:07:59;1.67;;;1.57;;
20207;SDS011;10263;48.716;8.760;2023-02-28T01:10:28;2.50;;;1.70;;
20207;SDS011;10263;48.716;8.760;2023-02-28T01:12:56;3.90;;;1.90;;
20207;SDS011;10263;48.716;8.760;2023-02-28T01:15:23;2.47;;;1.60;;
20207;SDS011;10263;48.716;8.760;2023-02-28T01:17:50;3.57;;;1.70;;
20207;SDS011;10263;48.716;8.760;2023-02-28T01:20:17;6.40;;;1.67;;
20207;SDS011;10263;48.716;8.760;2023-02-28T01:22:44;1.90;;;1.60;;
20207;SDS011;10263;48.716;8.760;2023-02-28T01:25:11;2.37;;;1.70;;
20207;SDS011;10263;48.716;8.760;2023-02-28T01:27:40;2.70;;;1.90;;
20207;SDS011;10263;48.716;8.760;2023-02-28T01:30:07;2.47;;;1.83;;
20207;SDS011;10263;48.716;8.760;2023-02-28T01:32:35;1.90;;;1.80;;
20207;SDS011;10263;48.716;8.760;2023-02-28T01:35:02;3.63;;;1.70;;
20207;SDS011;10263;48.716;8.760;2023-02-28T01:37:29;3.50;;;1.90;;
20207;SDS011;10263;48.716;8.760;2023-02-28T01:39:56;2.73;;;1.87;;
20207;SDS011;10263;48.716;8.760;2023-02-28T01:42:23;2.17;;;1.60;;
20207;SDS011;10263;48.716;8.760;2023-02-28T01:44:57;2.90;;;2.00;;
20207;SDS011;10263;48.716;8.760;2023-02-28T01:47:27;2.77;;;2.27;;
20207;SDS011;10263;48.716;8.760;2023-02-28T01:49:56;1.97;;;1.80;;
20207;SDS011;10263;48.716;8.760;2023-02-28T01:52:24;3.27;;;2.00;;
20207;SDS011;10263;48.716;8.760;2023-02-28T01:54:54;3.23;;;2.17;;
20207;SDS011;10263;48.716;8.760;2023-02-28T01:57:24;2.10;;;1.80;;
20207;SDS011;10263;48.716;8.760;2023-02-28T01:59:56;2.57;;;2.03;;
20207;SDS011;10263;48.716;8.760;2023-02-28T02:02:26;2.13;;;1.73;;
20207;SDS011;10263;48.716;8.760;2023-02-28T02:04:56;4.50;;;2.30;;
20207;SDS011;10263;48.716;8.760;2023-02-28T02:07:27;3.40;;;2.40;;
20207;SDS011;10263;48.716;8.760;2023-02-28T02:10:00;1.90;;;1.80;;
20207;SDS011;10263;48.716;8.760;2023-02-28T02:12:32;2.43;;;2.10;;
20207;SDS011;10263;48.716;8.760;2023-02-28T02:15:15;2.37;;;2.03;;
20207;SDS011;10263;48.716;8.760;2023-02-28T02:17:48;3.20;;;2.50;;
20207;SDS011;10263;48.716;8.760;2023-02-28T02:23:33;2.20;;;1.93;;
20207;SDS011;10263;48.716;8.760;2023-02-28T02:26:22;4.20;;;2.33;;
20207;SDS011;10263;48.716;8.760;2023-02-28T02:29:12;3.47;;;2.20;;
20207;SDS011;10263;48.716;8.760;2023-02-28T02:32:06;3.17;;;2.20;;
20207;SDS011;10263;48.716;8.760;2023-02-28T02:34:50;2.63;;;2.23;;
20207;SDS011;10263;48.716;8.760;2023-02-28T02:37:27;2.73;;;2.20;;
20207;SDS011;10263;48.716;8.760;2023-02-28T02:40:02;5.13;;;2.50;;
20207;SDS011;10263;48.716;8.760;2023-02-28T02:42:36;3.83;;;2.10;;
20207;SDS011;10263;48.716;8.760;2023-02-28T02:45:09;3.47;;;2.57;;
20207;SDS011;10263;48.716;8.760;2023-02-28T02:47:38;2.93;;;2.50;;
20207;SDS011;10263;48.716;8.760;2023-02-28T02:50:11;2.30;;;2.10;;
20207;SDS011;10263;48.716;8.760;2023-02-28T02:52:42;3.10;;;2.37;;
20207;SDS011;10263;48.716;8.760;2023-02-28T02:55:12;2.33;;;2.00;;
20207;SDS011;10263;48.716;8.760;2023-02-28T02:57:43;2.60;;;2.37;;
20207;SDS011;10263;48.716;8.760;2023-02-28T03:00:14;2.80;;;2.60;;
20207;SDS011;10263;48.716;8.760;2023-02-28T03:02:46;2.87;;;2.67;;
20207;SDS011;10263;48.716;8.760;2023-02-28T03:05:19;3.83;;;2.63;;
20207;SDS011;10263;48.716;8.760;2023-02-28T03:07:49;3.40;;;2.80;;
20207;SDS011;10263;48.716;8.760;2023-02-28T03:10:33;3.10;;;2.27;;
20207;SDS011;10263;48.716;8.760;2023-02-28T03:13:11;3.07;;;2.53;;
20207;SDS011;10263;48.716;8.760;2023-02-28T03:15:52;3.30;;;2.93;;
20207;SDS011;10263;48.716;8.760;2023-02-28T03:18:29;3.30;;;2.43;;
20207;SDS011;10263;48.716;8.760;2023-02-28T03:21:08;3.83;;;2.83;;
20207;SDS011;10263;48.716;8.760;2023-02-28T03:23:43;3.53;;;2.50;;
20207;SDS011;10263;48.716;8.760;2023-02-28T03:26:17;2.93;;;2.60;;
20207;SDS011;10263;48.716;8.760;2023-02-28T03:28:51;2.97;;;2.63;;
20207;SDS011;10263;48.716;8.760;2023-02-28T03:31:22;4.03;;;3.10;;
20207;SDS011;10263;48.716;8.760;2023-02-28T03:33:58;3.67;;;3.00;;
20207;SDS011;10263;48.716;8.760;2023-02-28T03:36:30;3.07;;;2.77;;
20207;SDS011;10263;48.716;8.760;2023-02-28T03:39:02;4.47;;;2.57;;
20207;SDS011;10263;48.716;8.760;2023-02-28T03:41:36;3.53;;;2.50;;
20207;SDS011;10263;48.716;8.760;2023-02-28T03:44:09;3.10;;;2.80;;
20207;SDS011;10263;48.716;8.760;2023-02-28T03:46:42;3.53;;;2.67;;
20207;SDS011;10263;48.716;8.760;2023-02-28T03:49:13;3.40;;;2.60;;
20207;SDS011;10263;48.716;8.760;2023-02-28T03:51:47;6.80;;;2.97;;
20207;SDS011;10263;48.716;8.760;2023-02-28T03:54:17;3.37;;;3.07;;
20207;SDS011;10263;48.716;8.760;2023-02-28T03:56:48;3.13;;;2.83;;
20207;SDS011;10263;48.716;8.760;2023-02-28T03:59:20;3.40;;;2.87;;
20207;SDS011;10263;48.716;8.760;2023-02-28T04:01:52;4.27;;;2.80;;
20207;SDS011;10263;48.716;8.760;2023-02-28T04:04:20;4.70;;;2.90;;
20207;SDS011;10263;48.716;8.760;2023-02-28T04:06:50;3.10;;;2.63;;
20207;SDS011;10263;48.716;8.760;2023-02-28T04:09:17;6.13;;;3.10;;
20207;SDS011;10263;48.716;8.760;2023-02-28T04:11:45;4.67;;;3.20;;
20207;SDS011;10263;48.716;8.760;2023-02-28T04:14:14;5.60;;;3.10;;
20207;SDS011;10263;48.716;8.760;2023-02-28T04:16:41;3.40;;;2.80;;
20207;SDS011;10263;48.716;8.760;2023-02-28T04:19:09;3.83;;;3.00;;
20207;SDS011;10263;48.716;8.760;2023-02-28T04:21:37;5.23;;;3.63;;
20207;SDS011;10263;48.716;8.760;2023-02-28T04:24:07;6.30;;;4.13;;
20207;SDS011;10263;48.716;8.760;2023-02-28T04:26:39;5.00;;;3.00;;
20207;SDS011;10263;48.716;8.760;2023-02-28T04:29:08;3.60;;;3.10;;
20207;SDS011;10263;48.716;8.760;2023-02-28T04:31:36;5.20;;;3.53;;
20207;SDS011;10263;48.716;8.760;2023-02-28T04:34:03;4.67;;;3.00;;
20207;SDS011;10263;48.716;8.760;2023-02-28T04:36:30;5.77;;;2.90;;
20207;SDS011;10263;48.716;8.760;2023-02-28T04:38:57;7.37;;;3.80;;
20207;SDS011;10263;48.716;8.760;2023-02-28T04:41:25;4.70;;;3.50;;
20207;SDS011;10263;48.716;8.760;2023-02-28T04:43:52;4.50;;;3.33;;
20207;SDS011;10263;48.716;8.760;2023-02-28T04:46:19;7.03;;;4.13;;
20207;SDS011;10263;48.716;8.760;2023-02-28T04:48:46;4.90;;;3.70;;
20207;SDS011;10263;48.716;8.760;2023-02-28T04:51:14;4.10;;;2.90;;
20207;SDS011;10263;48.716;8.760;2023-02-28T04:53:42;6.30;;;3.77;;
20207;SDS011;10263;48.716;8.760;2023-02-28T04:56:10;4.10;;;3.63;;
20207;SDS011;10263;48.716;8.760;2023-02-28T04:58:40;5.13;;;3.93;;
20207;SDS011;10263;48.716;8.760;2023-02-28T05:01:07;4.83;;;3.70;;
20207;SDS011;10263;48.716;8.760;2023-02-28T05:03:43;4.40;;;3.83;;
20207;SDS011;10263;48.716;8.760;2023-02-28T05:06:10;3.53;;;3.07;;
20207;SDS011;10263;48.716;8.760;2023-02-28T05:08:38;3.63;;;3.30;;
20207;SDS011;10263;48.716;8.760;2023-02-28T05:11:06;4.30;;;3.87;;
20207;SDS011;10263;48.716;8.760;2023-02-28T05:13:36;5.10;;;3.50;;
20207;SDS011;10263;48.716;8.760;2023-02-28T05:16:05;3.80;;;3.20;;
20207;SDS011;10263;48.716;8.760;2023-02-28T05:18:32;3.37;;;3.07;;
20207;SDS011;10263;48.716;8.760;2023-02-28T05:20:59;4.73;;;3.33;;
20207;SDS011;10263;48.716;8.760;2023-02-28T05:23:27;7.07;;;3.07;;
20207;SDS011;10263;48.716;8.760;2023-02-28T05:25:54;5.30;;;3.73;;
20207;SDS011;10263;48.716;8.760;2023-02-28T05:28:21;4.53;;;3.43;;
20207;SDS011;10263;48.716;8.760;2023-02-28T05:30:48;4.63;;;3.57;;
20207;SDS011;10263;48.716;8.760;2023-02-28T05:33:16;5.33;;;4.03;;
20207;SDS011;10263;48.716;8.760;2023-02-28T05:35:43;4.60;;;3.80;;
20207;SDS011;10263;48.716;8.760;2023-02-28T05:38:10;5.03;;;3.43;;
20207;SDS011;10263;48.716;8.760;2023-02-28T05:40:37;3.90;;;3.50;;
20207;SDS011;10263;48.716;8.760;2023-02-28T05:43:05;5.77;;;4.20;;
20207;SDS011;10263;48.716;8.760;2023-02-28T05:45:31;5.87;;;3.93;;
20207;SDS011;10263;48.716;8.760;2023-02-28T05:47:58;4.77;;;3.90;;
20207;SDS011;10263;48.716;8.760;2023-02-28T05:50:26;6.80;;;3.17;;
20207;SDS011;10263;48.716;8.760;2023-02-28T05:52:53;4.30;;;3.33;;
20207;SDS011;10263;48.716;8.760;2023-02-28T05:55:20;4.70;;;3.77;;
20207;SDS011;10263;48.716;8.760;2023-02-28T05:57:47;4.70;;;3.43;;
20207;SDS011;10263;48.716;8.760;2023-02-28T06:00:14;5.03;;;4.00;;
20207;SDS011;10263;48.716;8.760;2023-02-28T06:02:42;5.33;;;3.73;;
20207;SDS011;10263;48.716;8.760;2023-02-28T06:05:11;4.57;;;3.77;;
20207;SDS011;10263;48.716;8.760;2023-02-28T06:07:41;7.10;;;4.10;;
20207;SDS011;10263;48.716;8.760;2023-02-28T06:10:08;5.87;;;3.70;;
20207;SDS011;10263;48.716;8.760;2023-02-28T06:12:36;4.30;;;3.70;;
20207;SDS011;10263;48.716;8.760;2023-02-28T06:15:03;5.53;;;3.87;;
20207;SDS011;10263;48.716;8.760;2023-02-28T06:17:31;3.93;;;3.53;;
20207;SDS011;10263;48.716;8.760;2023-02-28T06:19:57;6.67;;;4.37;;
20207;SDS011;10263;48.716;8.760;2023-02-28T06:22:24;5.20;;;4.27;;
20207;SDS011;10263;48.716;8.760;2023-02-28T06:24:52;6.20;;;3.90;;
20207;SDS011;10263;48.716;8.760;2023-02-28T06:27:19;5.83;;;4.07;;
20207;SDS011;10263;48.716;8.760;2023-02-28T06:29:47;5.70;;;3.80;;
20207;SDS011;10263;48.716;8.760;2023-02-28T06:32:14;4.87;;;3.87;;
20207;SDS011;10263;48.716;8.760;2023-02-28T06:34:41;6.43;;;4.17;;
20207;SDS011;10263;48.716;8.760;2023-02-28T06:37:07;4.53;;;4.10;;
20207;SDS011;10263;48.716;8.760;2023-02-28T06:39:34;6.67;;;4.23;;
20207;SDS011;10263;48.716;8.760;2023-02-28T06:42:03;6.67;;;5.07;;
20207;SDS011;10263;48.716;8.760;2023-02-28T06:44:30;7.23;;;4.57;;
20207;SDS011;10263;48.716;8.760;2023-02-28T06:47:00;5.77;;;4.03;;
20207;SDS011;10263;48.716;8.760;2023-02-28T06:49:28;4.80;;;4.00;;
20207;SDS011;10263;48.716;8.760;2023-02-28T06:51:55;5.23;;;3.67;;
20207;SDS011;10263;48.716;8.760;2023-02-28T06:54:22;7.37;;;4.30;;
20207;SDS011;10263;48.716;8.760;2023-02-28T06:56:48;6.70;;;5.03;;
20207;SDS011;10263;48.716;8.760;2023-02-28T06:59:17;5.00;;;3.63;;
20207;SDS011;10263;48.716;8.760;2023-02-28T07:01:44;5.67;;;3.93;;
20207;SDS011;10263;48.716;8.760;2023-02-28T07:04:11;6.87;;;3.97;;
20207;SDS011;10263;48.716;8.760;2023-02-28T07:06:38;4.60;;;4.17;;
20207;SDS011;10263;48.716;8.760;2023-02-28T07:09:05;8.20;;;5.00;;
20207;SDS011;10263;48.716;8.760;2023-02-28T07:11:32;5.53;;;4.53;;
20207;SDS011;10263;48.716;8.760;2023-02-28T07:13:59;7.07;;;4.53;;
20207;SDS011;10263;48.716;8.760;2023-02-28T07:16:27;5.07;;;4.50;;
20207;SDS011;10263;48.716;8.760;2023-02-28T07:18:54;5.53;;;4.80;;
20207;SDS011;10263;48.716;8.760;2023-02-28T07:21:21;5.83;;;4.30;;
20207;SDS011;10263;48.716;8.760;2023-02-28T07:23:48;5.60;;;4.67;;
20207;SDS011;10263;48.716;8.760;2023-02-28T07:26:16;7.43;;;4.60;;
20207;SDS011;10263;48.716;8.760;2023-02-28T07:28:45;4.83;;;4.30;;
20207;SDS011;10263;48.716;8.760;2023-02-28T07:31:13;5.70;;;4.43;;
20207;SDS011;10263;48.716;8.760;2023-02-28T07:33:43;3.33;;;2.83;;
20207;SDS011;10263;48.716;8.760;2023-02-28T07:36:11;5.77;;;3.87;;
20207;SDS011;10263;48.716;8.760;2023-02-28T07:38:40;8.40;;;5.00;;
20207;SDS011;10263;48.716;8.760;2023-02-28T07:41:08;5.20;;;2.70;;
20207;SDS011;10263;48.716;8.760;2023-02-28T07:43:35;6.17;;;4.70;;
20207;SDS011;10263;48.716;8.760;2023-02-28T07:46:03;6.67;;;5.17;;
20207;SDS011;10263;48.716;8.760;2023-02-28T07:48:31;6.60;;;4.60;;
20207;SDS011;10263;48.716;8.760;2023-02-28T07:51:00;5.40;;;4.40;;
20207;SDS011;10263;48.716;8.760;2023-02-28T07:53:27;5.30;;;4.70;;
20207;SDS011;10263;48.716;8.760;2023-02-28T07:55:55;6.70;;;4.63;;
20207;SDS011;10263;48.716;8.760;2023-02-28T07:58:22;6.27;;;4.80;;
20207;SDS011;10263;48.716;8.760;2023-02-28T08:00:50;6.13;;;4.10;;
20207;SDS011;10263;48.716;8.760;2023-02-28T08:03:17;6.53;;;5.00;;
20207;SDS011;10263;48.716;8.760;2023-02-28T08:05:44;5.50;;;4.20;;
20207;SDS011;10263;48.716;8.760;2023-02-28T08:08:12;5.60;;;4.07;;
20207;SDS011;10263;48.716;8.760;2023-02-28T08:10:39;5.93;;;4.10;;
20207;SDS011;10263;48.716;8.760;2023-02-28T08:13:06;7.60;;;4.80;;
20207;SDS011;10263;48.716;8.760;2023-02-28T08:15:33;10.63;;;5.43;;
20207;SDS011;10263;48.716;8.760;2023-02-28T08:18:01;5.60;;;4.33;;
20207;SDS011;10263;48.716;8.760;2023-02-28T08:20:28;5.80;;;4.73;;
20207;SDS011;10263;48.716;8.760;2023-02-28T08:22:55;6.10;;;4.63;;
20207;SDS011;10263;48.716;8.760;2023-02-28T08:25:23;5.03;;;4.47;;
20207;SDS011;10263;48.716;8.760;2023-02-28T08:27:50;7.80;;;5.00;;
20207;SDS011;10263;48.716;8.760;2023-02-28T08:30:18;6.70;;;4.70;;
20207;SDS011;10263;48.716;8.760;2023-02-28T08:32:45;5.50;;;3.90;;
20207;SDS011;10263;48.716;8.760;2023-02-28T08:35:11;6.90;;;5.00;;
20207;SDS011;10263;48.716;8.760;2023-02-28T08:37:38;7.30;;;5.03;;
20207;SDS011;10263;48.716;8.760;2023-02-28T08:40:05;5.87;;;4.53;;
20207;SDS011;10263;48.716;8.760;2023-02-28T08:42:35;7.17;;;4.67;;
20207;SDS011;10263;48.716;8.760;2023-02-28T08:45:02;7.67;;;5.47;;
20207;SDS011;10263;48.716;8.760;2023-02-28T08:47:29;8.07;;;4.60;;
20207;SDS011;10263;48.716;8.760;2023-02-28T08:49:56;5.60;;;4.40;;
20207;SDS011;10263;48.716;8.760;2023-02-28T08:52:22;8.73;;;5.23;;
20207;SDS011;10263;48.716;8.760;2023-02-28T08:54:49;7.00;;;4.43;;
20207;SDS011;10263;48.716;8.760;2023-02-28T08:57:16;5.83;;;5.03;;
20207;SDS011;10263;48.716;8.760;2023-02-28T08:59:44;6.43;;;4.43;;
20207;SDS011;10263;48.716;8.760;2023-02-28T09:02:12;6.47;;;5.20;;
20207;SDS011;10263;48.716;8.760;2023-02-28T09:04:39;8.93;;;5.30;;
20207;SDS011;10263;48.716;8.760;2023-02-28T09:07:06;5.80;;;5.00;;
20207;SDS011;10263;48.716;8.760;2023-02-28T09:09:33;6.13;;;5.17;;
20207;SDS011;10263;48.716;8.760;2023-02-28T09:12:00;5.90;;;4.87;;
20207;SDS011;10263;48.716;8.760;2023-02-28T09:14:27;5.70;;;4.63;;
20207;SDS011;10263;48.716;8.760;2023-02-28T09:16:55;6.47;;;5.00;;
20207;SDS011;10263;48.716;8.760;2023-02-28T09:19:22;5.97;;;4.37;;
20207;SDS011;10263;48.716;8.760;2023-02-28T09:21:49;7.13;;;4.73;;
20207;SDS011;10263;48.716;8.760;2023-02-28T09:24:16;5.97;;;4.93;;
20207;SDS011;10263;48.716;8.760;2023-02-28T09:26:43;5.70;;;4.47;;
20207;SDS011;10263;48.716;8.760;2023-02-28T09:29:10;7.23;;;5.70;;
20207;SDS011;10263;48.716;8.760;2023-02-28T09:31:37;7.73;;;5.00;;
20207;SDS011;10263;48.716;8.760;2023-02-28T09:34:05;7.13;;;4.87;;
20207;SDS011;10263;48.716;8.760;2023-02-28T09:36:32;5.80;;;4.50;;
20207;SDS011;10263;48.716;8.760;2023-02-28T09:39:00;6.40;;;5.50;;
20207;SDS011;10263;48.716;8.760;2023-02-28T09:41:27;9.13;;;5.00;;
20207;SDS011;10263;48.716;8.760;2023-02-28T09:44:00;8.73;;;5.27;;
20207;SDS011;10263;48.716;8.760;2023-02-28T09:46:32;8.80;;;5.67;;
20207;SDS011;10263;48.716;8.760;2023-02-28T09:49:00;17.80;;;5.90;;
20207;SDS011;10263;48.716;8.760;2023-02-28T09:51:35;6.37;;;4.93;;
20207;SDS011;10263;48.716;8.760;2023-02-28T09:54:11;8.70;;;6.10;;
20207;SDS011;10263;48.716;8.760;2023-02-28T09:56:44;6.57;;;4.87;;
20207;SDS011;10263;48.716;8.760;2023-02-28T09:59:18;6.47;;;5.20;;
20207;SDS011;10263;48.716;8.760;2023-02-28T10:01:57;6.60;;;5.27;;
20207;SDS011;10263;48.716;8.760;2023-02-28T10:04:36;8.03;;;5.20;;
20207;SDS011;10263;48.716;8.760;2023-02-28T10:07:12;7.10;;;5.60;;
20207;SDS011;10263;48.716;8.760;2023-02-28T10:09:49;6.63;;;4.87;;
20207;SDS011;10263;48.716;8.760;2023-02-28T10:12:19;6.33;;;4.87;;
20207;SDS011;10263;48.716;8.760;2023-02-28T10:14:46;9.10;;;5.67;;
20207;SDS011;10263;48.716;8.760;2023-02-28T10:17:17;6.27;;;5.03;;
20207;SDS011;10263;48.716;8.760;2023-02-28T10:19:49;7.00;;;5.30;;
20207;SDS011;10263;48.716;8.760;2023-02-28T10:22:23;6.10;;;5.03;;
20207;SDS011;10263;48.716;8.760;2023-02-28T10:24:55;8.33;;;5.73;;
20207;SDS011;10263;48.716;8.760;2023-02-28T10:27:26;7.10;;;5.40;;
20207;SDS011;10263;48.716;8.760;2023-02-28T10:29:57;7.53;;;5.93;;
20207;SDS011;10263;48.716;8.760;2023-02-28T10:32:26;9.00;;;5.83;;
20207;SDS011;10263;48.716;8.760;2023-02-28T10:34:55;7.33;;;5.80;;
20207;SDS011;10263;48.716;8.760;2023-02-28T10:37:27;8.77;;;5.93;;
20207;SDS011;10263;48.716;8.760;2023-02-28T10:39:54;6.57;;;5.27;;
20207;SDS011;10263;48.716;8.760;2023-02-28T10:42:22;9.23;;;6.07;;
20207;SDS011;10263;48.716;8.760;2023-02-28T10:45:10;6.93;;;5.40;;
20207;SDS011;10263;48.716;8.760;2023-02-28T10:47:40;6.73;;;5.97;;
20207;SDS011;10263;48.716;8.760;2023-02-28T10:50:27;9.87;;;6.40;;
20207;SDS011;10263;48.716;8.760;2023-02-28T10:53:07;7.50;;;6.27;;
20207;SDS011;10263;48.716;8.760;2023-02-28T10:55:42;8.03;;;6.20;;
20207;SDS011;10263;48.716;8.760;2023-02-28T10:58:20;6.60;;;5.43;;
20207;SDS011;10263;48.716;8.760;2023-02-28T11:00:48;8.43;;;6.23;;
20207;SDS011;10263;48.716;8.760;2023-02-28T11:03:22;9.17;;;5.63;;
20207;SDS011;10263;48.716;8.760;2023-02-28T11:05:51;8.47;;;6.03;;
20207;SDS011;10263;48.716;8.760;2023-02-28T11:08:19;7.17;;;6.00;;
20207;SDS011;10263;48.716;8.760;2023-02-28T11:10:47;6.40;;;5.10;;
20207;SDS011;10263;48.716;8.760;2023-02-28T11:13:20;8.90;;;6.17;;
20207;SDS011;10263;48.716;8.760;2023-02-28T11:15:51;11.10;;;6.07;;
20207;SDS011;10263;48.716;8.760;2023-02-28T11:18:21;6.77;;;5.27;;
20207;SDS011;10263;48.716;8.760;2023-02-28T11:20:51;8.47;;;6.23;;
20207;SDS011;10263;48.716;8.760;2023-02-28T11:23:21;7.77;;;6.23;;
20207;SDS011;10263;48.716;8.760;2023-02-28T11:25:52;8.10;;;6.13;;
20207;SDS011;10263;48.716;8.760;2023-02-28T11:28:26;6.43;;;4.47;;
20207;SDS011;10263;48.716;8.760;2023-02-28T11:30:59;7.27;;;5.67;;
20207;SDS011;10263;48.716;8.760;2023-02-28T11:33:29;7.83;;;6.13;;
20207;SDS011;10263;48.716;8.760;2023-02-28T11:35:58;8.27;;;6.27;;
20207;SDS011;10263;48.716;8.760;2023-02-28T11:38:29;7.53;;;6.20;;
20207;SDS011;10263;48.716;8.760;2023-02-28T11:41:03;9.60;;;5.77;;
20207;SDS011;10263;48.716;8.760;2023-02-28T11:43:44;7.77;;;6.03;;
20207;SDS011;10263;48.716;8.760;2023-02-28T11:46:21;6.73;;;5.63;;
20207;SDS011;10263;48.716;8.760;2023-02-28T11:48:57;8.37;;;6.37;;
20207;SDS011;10263;48.716;8.760;2023-02-28T11:51:33;8.13;;;5.37;;
20207;SDS011;10263;48.716;8.760;2023-02-28T11:54:11;7.57;;;5.90;;
20207;SDS011;10263;48.716;8.760;2023-02-28T11:56:51;8.67;;;6.30;;
20207;SDS011;10263;48.716;8.760;2023-02-28T11:59:34;7.93;;;5.70;;
20207;SDS011;10263;48.716;8.760;2023-02-28T12:05:09;8.70;;;6.07;;
20207;SDS011;10263;48.716;8.760;2023-02-28T12:07:46;7.57;;;5.97;;
20207;SDS011;10263;48.716;8.760;2023-02-28T12:10:25;6.80;;;5.37;;
20207;SDS011;10263;48.716;8.760;2023-02-28T12:13:03;6.37;;;5.40;;
20207;SDS011;10263;48.716;8.760;2023-02-28T12:21:41;7.13;;;5.87;;
20207;SDS011;10263;48.716;8.760;2023-02-28T12:24:37;7.43;;;5.63;;
20207;SDS011;10263;48.716;8.760;2023-02-28T12:27:13;9.80;;;6.17;;
20207;SDS011;10263;48.716;8.760;2023-02-28T12:29:44;6.97;;;5.60;;
20207;SDS011;10263;48.716;8.760;2023-02-28T12:32:16;7.73;;;5.70;;
20207;SDS011;10263;48.716;8.760;2023-02-28T12:34:48;7.07;;;5.33;;
20207;SDS011;10263;48.716;8.760;2023-02-28T12:37:19;7.43;;;5.83;;
20207;SDS011;10263;48.716;8.760;2023-02-28T12:39:51;6.77;;;5.40;;
20207;SDS011;10263;48.716;8.760;2023-02-28T12:42:28;8.87;;;5.47;;
20207;SDS011;10263;48.716;8.760;2023-02-28T12:44:58;7.47;;;5.93;;
20207;SDS011;10263;48.716;8.760;2023-02-28T12:47:27;6.93;;;5.40;;
20207;SDS011;10263;48.716;8.760;2023-02-28T12:49:55;7.37;;;5.30;;
20207;SDS011;10263;48.716;8.760;2023-02-28T12:52:28;6.93;;;5.47;;
20207;SDS011;10263;48.716;8.760;2023-02-28T12:55:03;6.03;;;5.17;;
20207;SDS011;10263;48.716;8.760;2023-02-28T12:57:36;6.70;;;5.93;;
20207;SDS011;10263;48.716;8.760;2023-02-28T13:00:10;6.87;;;5.90;;
20207;SDS011;10263;48.716;8.760;2023-02-28T13:08:48;6.13;;;5.53;;
20207;SDS011;10263;48.716;8.760;2023-02-28T13:11:30;6.27;;;5.20;;
20207;SDS011;10263;48.716;8.760;2023-02-28T13:14:01;6.57;;;5.97;;
20207;SDS011;10263;48.716;8.760;2023-02-28T13:19:17;9.53;;;6.47;;
20207;SDS011;10263;48.716;8.760;2023-02-28T13:21:46;7.17;;;6.00;;
20207;SDS011;10263;48.716;8.760;2023-02-28T13:27:11;6.40;;;5.70;;
20207;SDS011;10263;48.716;8.760;2023-02-28T13:29:57;7.00;;;6.03;;
20207;SDS011;10263;48.716;8.760;2023-02-28T13:32:29;7.87;;;5.40;;
20207;SDS011;10263;48.716;8.760;2023-02-28T13:44:04;6.53;;;5.83;;
20207;SDS011;10263;48.716;8.760;2023-02-28T13:46:35;6.30;;;5.50;;
20207;SDS011;10263;48.716;8.760;2023-02-28T13:49:24;6.57;;;5.80;;
20207;SDS011;10263;48.716;8.760;2023-02-28T13:51:53;6.17;;;5.63;;
20207;SDS011;10263;48.716;8.760;2023-02-28T13:54:34;6.40;;;5.77;;
20207;SDS011;10263;48.716;8.760;2023-02-28T13:57:13;7.23;;;5.57;;
20207;SDS011;10263;48.716;8.760;2023-02-28T13:59:50;5.70;;;5.20;;
20207;SDS011;10263;48.716;8.760;2023-02-28T14:02:51;5.70;;;5.10;;
20207;SDS011;10263;48.716;8.760;2023-02-28T14:05:41;5.94;;;5.34;;
20207;SDS011;10263;48.716;8.760;2023-02-28T14:08:12;6.20;;;5.60;;
20207;SDS011;10263;48.716;8.760;2023-02-28T14:10:43;6.30;;;5.70;;
20207;SDS011;10263;48.716;8.760;2023-02-28T14:13:14;5.80;;;5.30;;
20207;SDS011;10263;48.716;8.760;2023-02-28T14:16:09;8.00;;;5.90;;
20207;SDS011;10263;48.716;8.760;2023-02-28T14:18:39;7.00;;;5.63;;
20207;SDS011;10263;48.716;8.760;2023-02-28T14:21:09;6.10;;;5.30;;
20207;SDS011;10263;48.716;8.760;2023-02-28T14:23:43;5.78;;;5.28;;
20207;SDS011;10263;48.716;8.760;2023-02-28T14:26:29;6.68;;;5.93;;
20207;SDS011;10263;48.716;8.760;2023-02-28T14:29:14;5.60;;;5.10;;
20207;SDS011;10263;48.716;8.760;2023-02-28T14:32:11;5.28;;;4.82;;
20207;SDS011;10263;48.716;8.760;2023-02-28T14:34:50;6.63;;;5.83;;
20207;SDS011;10263;48.716;8.760;2023-02-28T14:37:20;6.70;;;6.10;;
20207;SDS011;10263;48.716;8.760;2023-02-28T14:39:52;6.17;;;5.57;;
20207;SDS011;10263;48.716;8.760;2023-02-28T14:42:30;6.63;;;5.95;;
20207;SDS011;10263;48.716;8.760;2023-02-28T14:44:58;5.95;;;5.40;;
20207;SDS011;10263;48.716;8.760;2023-02-28T14:47:27;7.55;;;5.65;;
20207;SDS011;10263;48.716;8.760;2023-02-28T14:49:57;6.20;;;5.53;;
20207;SDS011;10263;48.716;8.760;2023-02-28T14:52:26;5.65;;;5.15;;
20207;SDS011;10263;48.716;8.760;2023-02-28T14:54:55;6.30;;;5.65;;
20207;SDS011;10263;48.716;8.760;2023-02-28T14:57:25;6.57;;;5.95;;
20207;SDS011;10263;48.716;8.760;2023-02-28T14:59:56;6.30;;;5.40;;
20207;SDS011;10263;48.716;8.760;2023-02-28T15:02:29;5.47;;;4.97;;
20207;SDS011;10263;48.716;8.760;2023-02-28T15:05:02;5.78;;;5.28;;
20207;SDS011;10263;48.716;8.760;2023-02-28T15:07:46;8.55;;;5.93;;
20207;SDS011;10263;48.716;8.760;2023-02-28T15:10:18;6.55;;;5.82;;
20207;SDS011;10263;48.716;8.760;2023-02-28T15:12:49;5.77;;;5.27;;
20207;SDS011;10263;48.716;8.760;2023-02-28T15:15:20;6.07;;;5.50;;
20207;SDS011;10263;48.716;8.760;2023-02-28T15:17:49;5.85;;;5.35;;
20207;SDS011;10263;48.716;8.760;2023-02-28T15:20:20;8.80;;;5.47;;
20207;SDS011;10263;48.716;8.760;2023-02-28T15:22:47;6.27;;;5.77;;
20207;SDS011;10263;48.716;8.760;2023-02-28T15:25:18;6.77;;;5.43;;
20207;SDS011;10263;48.716;8.760;2023-02-28T15:27:47;7.63;;;5.87;;
20207;SDS011;10263;48.716;8.760;2023-02-28T15:30:16;7.33;;;5.73;;
20207;SDS011;10263;48.716;8.760;2023-02-28T15:32:45;6.97;;;6.30;;
20207;SDS011;10263;48.716;8.760;2023-02-28T15:35:31;6.47;;;5.77;;
20207;SDS011;10263;48.716;8.760;2023-02-28T15:38:00;8.30;;;6.07;;
20207;SDS011;10263;48.716;8.760;2023-02-28T15:40:28;7.70;;;5.93;;
20207;SDS011;10263;48.716;8.760;2023-02-28T15:42:58;7.00;;;6.17;;